createdAt,value
2018-06-11T00:01:15.038Z,21.30
2018-06-11T00:03:42.741Z,21.30
2018-06-11T00:06:10.126Z,21.30
2018-06-11T00:08:37.579Z,21.30
2018-06-11T00:11:04.931Z,21.30
2018-06-11T00:13:32.895Z,21.30
2018-06-11T00:18:27.918Z,21.30
2018-06-11T00:20:56.468Z,21.30
2018-06-11T00:23:24.404Z,21.30
2018-06-11T00:25:51.749Z,21.30
2018-06-11T00:28:22.552Z,21.30
2018-06-11T00:30:51.071Z,21.30
2018-06-11T00:33:19.241Z,21.20
2018-06-11T00:35:47.591Z,21.20
2018-06-11T00:38:15.049Z,21.20
2018-06-11T00:40:43.709Z,21.20
2018-06-11T00:43:11.885Z,21.10
2018-06-11T00:45:39.349Z,21.00
2018-06-11T00:48:07.579Z,20.90
2018-06-11T00:50:39.867Z,20.90
2018-06-11T00:53:08.457Z,20.90
2018-06-11T00:55:48.299Z,20.90
2018-06-11T00:58:15.732Z,20.90
2018-06-11T01:00:43.296Z,20.90
2018-06-11T01:03:10.656Z,20.90
2018-06-11T01:05:38.139Z,20.90
2018-06-11T01:08:05.613Z,20.90
2018-06-11T01:10:33.199Z,20.80
2018-06-11T01:13:00.779Z,20.80
2018-06-11T01:15:28.200Z,20.80
2018-06-11T01:17:55.839Z,20.70
2018-06-11T01:20:23.359Z,20.70
2018-06-11T01:22:50.804Z,20.80
2018-06-11T01:25:18.865Z,20.60
2018-06-11T01:27:46.339Z,20.60
2018-06-11T01:30:13.688Z,20.70
2018-06-11T01:32:41.135Z,20.70
2018-06-11T01:35:08.493Z,20.70
2018-06-11T01:37:35.891Z,20.70
2018-06-11T01:40:03.283Z,20.70
2018-06-11T01:42:30.643Z,20.70
2018-06-11T01:44:58.002Z,20.70
2018-06-11T01:47:25.509Z,20.70
2018-06-11T01:49:52.952Z,20.60
2018-06-11T01:52:20.341Z,20.50
2018-06-11T01:54:47.654Z,20.60
2018-06-11T01:57:15.174Z,20.60
2018-06-11T01:59:42.527Z,20.50
2018-06-11T02:02:10.292Z,20.50
2018-06-11T02:04:38.054Z,20.50
2018-06-11T02:07:05.550Z,20.50
2018-06-11T02:09:32.922Z,20.50
2018-06-11T02:12:31.575Z,20.50
2018-06-11T02:14:59.044Z,20.50
2018-06-11T02:17:27.924Z,20.40
2018-06-11T02:19:55.297Z,20.40
2018-06-11T02:24:50.000Z,20.50
2018-06-11T02:27:17.349Z,20.40
2018-06-11T02:29:44.715Z,20.40
2018-06-11T02:32:12.421Z,20.40
2018-06-11T02:34:39.862Z,20.50
2018-06-11T02:37:07.136Z,20.40
2018-06-11T02:39:34.579Z,20.40
2018-06-11T02:42:01.891Z,20.40
2018-06-11T02:46:57.995Z,20.40
2018-06-11T02:49:25.326Z,20.30
2018-06-11T02:51:52.630Z,20.40
2018-06-11T02:54:20.020Z,20.40
2018-06-11T02:56:47.300Z,20.40
2018-06-11T02:59:14.687Z,20.40
2018-06-11T03:01:42.081Z,20.40
2018-06-11T03:04:09.423Z,20.30
2018-06-11T03:06:36.859Z,20.30
2018-06-11T03:09:06.215Z,20.20
2018-06-11T03:11:33.553Z,20.20
2018-06-11T03:14:00.884Z,20.20
2018-06-11T03:16:28.294Z,20.20
2018-06-11T03:18:55.667Z,20.20
2018-06-11T03:21:22.945Z,20.20
2018-06-11T03:23:50.381Z,20.20
2018-06-11T03:26:17.759Z,20.20
2018-06-11T03:28:45.122Z,20.20
2018-06-11T03:31:12.482Z,20.20
2018-06-11T03:33:39.785Z,20.20
2018-06-11T03:36:07.117Z,20.20
2018-06-11T03:38:34.739Z,20.30
2018-06-11T03:41:02.270Z,20.30
2018-06-11T03:43:29.546Z,20.30
2018-06-11T03:45:56.966Z,20.30
2018-06-11T03:48:24.386Z,20.40
2018-06-11T03:53:19.171Z,20.40
2018-06-11T03:55:46.530Z,20.40
2018-06-11T03:58:14.551Z,20.40
2018-06-11T04:00:42.059Z,20.50
2018-06-11T04:03:09.334Z,20.50
2018-06-11T04:05:36.962Z,20.50
2018-06-11T04:08:04.589Z,20.50
2018-06-11T04:10:32.062Z,20.50
2018-06-11T04:12:59.502Z,20.50
2018-06-11T04:15:26.965Z,20.50
2018-06-11T04:17:54.326Z,20.50
2018-06-11T04:20:21.639Z,20.50
2018-06-11T04:22:48.914Z,20.50
2018-06-11T04:25:16.524Z,20.50
2018-06-11T04:27:43.809Z,20.60
2018-06-11T04:30:11.150Z,20.60
2018-06-11T04:32:38.434Z,20.60
2018-06-11T04:35:05.825Z,20.60
2018-06-11T04:37:33.141Z,20.60
2018-06-11T04:40:00.959Z,20.70
2018-06-11T04:42:28.346Z,20.70
2018-06-11T04:44:55.734Z,20.80
2018-06-11T04:47:25.844Z,20.80
2018-06-11T04:49:53.138Z,20.90
2018-06-11T04:52:20.437Z,21.00
2018-06-11T04:54:47.794Z,20.90
2018-06-11T04:57:15.231Z,21.00
2018-06-11T04:59:42.790Z,21.10
2018-06-11T05:02:10.247Z,21.10
2018-06-11T05:04:37.636Z,21.10
2018-06-11T05:07:05.183Z,21.20
2018-06-11T05:09:32.634Z,21.10
2018-06-11T05:11:59.962Z,21.10
2018-06-11T05:14:27.281Z,21.10
2018-06-11T05:16:54.597Z,21.10
2018-06-11T05:19:21.913Z,21.30
2018-06-11T05:21:49.298Z,21.30
2018-06-11T05:24:16.663Z,21.40
2018-06-11T05:26:43.928Z,21.50
2018-06-11T05:29:11.238Z,21.60
2018-06-11T05:31:38.683Z,21.70
2018-06-11T05:34:06.202Z,21.80
2018-06-11T05:36:33.666Z,21.80
2018-06-11T05:39:01.022Z,21.90
2018-06-11T05:41:28.364Z,21.90
2018-06-11T05:43:55.735Z,21.90
2018-06-11T05:46:23.070Z,22.00
2018-06-11T05:48:50.422Z,22.00
2018-06-11T05:51:17.819Z,22.10
2018-06-11T05:53:45.286Z,22.10
2018-06-11T05:56:12.590Z,22.20
2018-06-11T05:58:39.975Z,22.20
2018-06-11T06:01:07.303Z,22.20
2018-06-11T06:03:34.603Z,22.30
2018-06-11T06:06:02.041Z,22.30
2018-06-11T06:08:29.493Z,22.30
2018-06-11T06:10:56.807Z,22.30
2018-06-11T06:13:24.086Z,22.40
2018-06-11T06:15:51.495Z,22.50
2018-06-11T06:18:19.383Z,22.60
2018-06-11T06:20:46.898Z,22.70
2018-06-11T06:23:14.234Z,22.90
2018-06-11T06:25:41.827Z,23.00
2018-06-11T06:28:09.136Z,23.00
2018-06-11T06:30:36.481Z,23.20
2018-06-11T06:33:03.901Z,23.30
2018-06-11T06:35:31.517Z,23.40
2018-06-11T06:37:58.898Z,23.50
2018-06-11T06:40:26.227Z,23.60
2018-06-11T06:42:53.630Z,23.70
2018-06-11T06:45:21.142Z,23.80
2018-06-11T06:47:48.478Z,23.90
2018-06-11T06:50:15.758Z,23.90
2018-06-11T06:52:43.073Z,24.00
2018-06-11T06:57:37.794Z,24.20
2018-06-11T07:00:05.096Z,24.30
2018-06-11T07:02:32.377Z,24.30
2018-06-11T07:04:59.646Z,24.40
2018-06-11T07:07:27.082Z,24.50
2018-06-11T07:09:54.444Z,24.60
2018-06-11T07:12:21.895Z,24.60
2018-06-11T07:14:49.281Z,24.60
2018-06-11T07:17:16.642Z,24.80
2018-06-11T07:19:44.013Z,24.80
2018-06-11T07:22:11.346Z,24.90
2018-06-11T07:24:38.856Z,24.90
2018-06-11T07:27:06.190Z,25.10
2018-06-11T07:29:33.599Z,25.10
2018-06-11T07:32:01.076Z,25.20
2018-06-11T07:34:28.427Z,25.20
2018-06-11T07:36:55.730Z,25.30
2018-06-11T07:39:23.057Z,25.50
2018-06-11T07:41:50.484Z,25.60
2018-06-11T07:44:17.852Z,25.70
2018-06-11T07:46:45.210Z,25.80
2018-06-11T07:49:12.675Z,25.80
2018-06-11T07:51:40.022Z,25.90
2018-06-11T07:54:07.318Z,26.00
2018-06-11T07:56:34.663Z,26.10
2018-06-11T07:59:02.039Z,26.10
2018-06-11T08:01:29.823Z,26.30
2018-06-11T08:03:57.080Z,26.20
2018-06-11T08:06:24.384Z,26.30
2018-06-11T08:08:51.732Z,26.30
2018-06-11T08:11:19.198Z,26.40
2018-06-11T08:13:46.541Z,26.50
2018-06-11T08:16:13.886Z,26.50
2018-06-11T08:18:41.216Z,26.60
2018-06-11T08:21:08.550Z,26.70
2018-06-11T08:23:35.871Z,26.80
2018-06-11T08:26:03.285Z,26.80
2018-06-11T08:28:30.698Z,26.80
2018-06-11T08:30:58.051Z,26.90
2018-06-11T08:33:25.481Z,26.90
2018-06-11T08:35:52.759Z,27.00
2018-06-11T08:38:20.092Z,26.90
2018-06-11T08:40:47.393Z,26.90
2018-06-11T08:43:14.836Z,26.90
2018-06-11T08:45:42.115Z,27.10
2018-06-11T08:48:09.418Z,27.20
2018-06-11T08:50:36.847Z,27.20
2018-06-11T08:53:04.390Z,27.30
2018-06-11T08:55:31.754Z,27.30
2018-06-11T08:57:58.998Z,27.40
2018-06-11T09:00:26.450Z,27.40
2018-06-11T09:02:53.728Z,27.40
2018-06-11T09:05:21.247Z,27.40
2018-06-11T09:07:48.729Z,27.30
2018-06-11T09:10:16.208Z,27.20
2018-06-11T09:12:43.529Z,27.10
2018-06-11T09:15:10.878Z,27.20
2018-06-11T09:17:38.140Z,27.40
2018-06-11T09:20:05.482Z,27.40
2018-06-11T09:22:32.913Z,27.50
2018-06-11T09:25:00.820Z,27.60
2018-06-11T09:27:28.285Z,27.60
2018-06-11T09:29:56.079Z,27.70
2018-06-11T09:32:23.507Z,27.80
2018-06-11T09:34:51.008Z,27.90
2018-06-11T09:37:18.459Z,28.00
2018-06-11T09:39:45.977Z,28.00
2018-06-11T09:42:13.276Z,28.00
2018-06-11T09:44:40.648Z,27.80
2018-06-11T09:47:07.904Z,27.80
2018-06-11T09:49:35.383Z,27.90
2018-06-11T09:52:03.311Z,27.80
2018-06-11T09:56:58.488Z,27.90
2018-06-11T09:59:28.200Z,28.00
2018-06-11T10:01:55.602Z,28.00
2018-06-11T10:04:22.952Z,28.10
2018-06-11T10:06:50.235Z,28.20
2018-06-11T10:09:17.703Z,28.20
2018-06-11T10:11:45.016Z,28.20
2018-06-11T10:14:14.162Z,28.10
2018-06-11T10:16:43.153Z,28.20
2018-06-11T10:19:10.560Z,28.30
2018-06-11T10:21:38.010Z,28.40
2018-06-11T10:24:05.396Z,28.30
2018-06-11T10:26:32.731Z,28.30
2018-06-11T10:29:00.084Z,28.30
2018-06-11T10:31:27.376Z,28.30
2018-06-11T10:33:54.850Z,28.10
2018-06-11T10:36:22.226Z,28.00
2018-06-11T10:38:49.574Z,28.10
2018-06-11T10:41:16.970Z,28.10
2018-06-11T10:43:44.405Z,28.10
2018-06-11T10:46:12.440Z,28.20
2018-06-11T10:48:39.717Z,28.30
2018-06-11T10:51:07.108Z,28.30
2018-06-11T10:53:34.450Z,28.30
2018-06-11T10:56:01.751Z,28.50
2018-06-11T10:58:40.292Z,28.60
2018-06-11T11:01:07.734Z,28.70
2018-06-11T11:03:35.381Z,28.70
2018-06-11T11:06:02.869Z,28.90
2018-06-11T11:08:30.317Z,29.00
2018-06-11T11:10:57.679Z,29.00
2018-06-11T11:13:25.144Z,29.10
2018-06-11T11:15:52.532Z,29.10
2018-06-11T11:18:19.886Z,29.10
2018-06-11T11:20:47.172Z,29.10
2018-06-11T11:23:14.562Z,29.10
2018-06-11T11:25:41.939Z,29.20
2018-06-11T11:28:09.273Z,29.10
2018-06-11T11:30:36.589Z,29.10
2018-06-11T11:33:05.095Z,29.30
2018-06-11T11:35:32.443Z,29.50
2018-06-11T11:37:59.790Z,29.60
2018-06-11T11:40:27.156Z,29.90
2018-06-11T11:42:54.636Z,30.00
2018-06-11T11:47:55.524Z,30.40
2018-06-11T11:50:22.961Z,30.50
2018-06-11T11:52:50.398Z,30.60
2018-06-11T11:55:17.707Z,30.50
2018-06-11T11:57:45.008Z,30.40
2018-06-11T12:00:12.403Z,30.60
2018-06-11T12:02:39.696Z,30.50
2018-06-11T12:05:07.690Z,30.60
2018-06-11T12:07:34.977Z,30.80
2018-06-11T12:10:02.570Z,31.00
2018-06-11T12:12:29.857Z,31.00
2018-06-11T12:14:57.897Z,30.90
2018-06-11T12:17:25.237Z,30.90
2018-06-11T12:19:52.651Z,30.90
2018-06-11T12:22:20.010Z,30.90
2018-06-11T12:24:47.278Z,31.10
2018-06-11T12:27:14.565Z,31.40
2018-06-11T12:29:41.905Z,31.50
2018-06-11T12:32:09.821Z,31.50
2018-06-11T12:34:37.182Z,31.60
2018-06-11T12:37:04.531Z,31.80
2018-06-11T12:39:31.884Z,31.80
2018-06-11T12:41:59.328Z,31.60
2018-06-11T12:44:26.700Z,31.80
2018-06-11T12:46:54.127Z,31.70
2018-06-11T12:49:21.429Z,31.60
2018-06-11T12:51:48.756Z,31.60
2018-06-11T12:54:16.201Z,31.40
2018-06-11T12:56:43.549Z,31.30
2018-06-11T12:59:11.138Z,31.50
2018-06-11T13:01:38.598Z,31.70
2018-06-11T13:04:05.960Z,31.90
2018-06-11T13:06:33.359Z,32.10
2018-06-11T13:09:00.748Z,32.00
2018-06-11T13:11:28.103Z,31.80
2018-06-11T13:13:55.518Z,31.60
2018-06-11T13:16:22.859Z,31.40
2018-06-11T13:18:50.318Z,31.20
2018-06-11T13:23:44.998Z,30.80
2018-06-11T13:26:12.332Z,30.50
2018-06-11T13:28:39.764Z,30.20
2018-06-11T13:31:07.072Z,29.80
2018-06-11T13:33:34.369Z,29.60
2018-06-11T13:36:01.695Z,29.40
2018-06-11T13:38:29.126Z,29.30
2018-06-11T13:40:56.606Z,29.20
2018-06-11T13:43:23.946Z,29.10
2018-06-11T13:45:51.279Z,28.90
2018-06-11T13:48:18.687Z,28.60
2018-06-11T13:50:46.000Z,28.20
2018-06-11T13:53:13.300Z,28.10
2018-06-11T13:55:40.581Z,28.00
2018-06-11T13:58:08.019Z,27.90
2018-06-11T14:00:35.303Z,27.80
2018-06-11T14:03:03.012Z,27.70
2018-06-11T14:05:30.347Z,27.50
2018-06-11T14:07:57.915Z,27.50
2018-06-11T14:10:25.973Z,27.40
2018-06-11T14:12:53.315Z,27.40
2018-06-11T14:15:20.689Z,27.50
2018-06-11T14:17:50.607Z,27.60
2018-06-11T14:25:13.186Z,28.10
2018-06-11T14:27:40.639Z,28.40
2018-06-11T14:30:08.935Z,28.90
2018-06-11T14:35:03.778Z,29.90
2018-06-11T14:37:31.141Z,30.30
2018-06-11T14:39:58.468Z,30.50
2018-06-11T14:42:25.798Z,30.60
2018-06-11T14:44:54.964Z,31.00
2018-06-11T14:47:22.768Z,31.50
2018-06-11T14:49:50.326Z,32.10
2018-06-11T14:52:18.283Z,32.50
2018-06-11T14:54:45.835Z,32.80
2018-06-11T14:57:14.525Z,32.90
2018-06-11T14:59:42.183Z,32.90
2018-06-11T15:02:09.642Z,32.60
2018-06-11T15:04:38.777Z,32.20
2018-06-11T15:07:06.434Z,31.90
2018-06-11T15:09:34.046Z,31.80
2018-06-11T15:12:02.007Z,31.40
2018-06-11T15:14:30.365Z,31.10
2018-06-11T15:16:58.100Z,30.70
2018-06-11T15:19:25.781Z,30.40
2018-06-11T15:21:53.273Z,30.00
2018-06-11T15:24:21.249Z,29.50
2018-06-11T15:26:49.307Z,29.20
2018-06-11T15:29:17.100Z,28.90
2018-06-11T15:31:45.296Z,28.60
2018-06-11T15:34:13.372Z,28.40
2018-06-11T15:36:41.494Z,28.10
2018-06-11T15:39:11.094Z,28.00
2018-06-11T15:41:38.866Z,27.80
2018-06-11T15:44:06.546Z,27.70
2018-06-11T15:46:34.236Z,27.60
2018-06-11T15:49:02.774Z,27.50
2018-06-11T15:51:31.913Z,27.30
2018-06-11T15:54:01.111Z,27.20
2018-06-11T15:56:29.962Z,26.90
2018-06-11T15:58:57.825Z,26.80
2018-06-11T16:01:26.609Z,26.50
2018-06-11T16:03:55.089Z,26.30
2018-06-11T16:06:23.853Z,26.00
2018-06-11T16:08:52.124Z,25.90
2018-06-11T16:11:21.504Z,25.80
2018-06-11T16:13:49.552Z,25.70
2018-06-11T16:16:17.706Z,25.50
2018-06-11T16:18:46.982Z,25.60
2018-06-11T16:21:15.169Z,25.60
2018-06-11T16:23:44.426Z,25.60
2018-06-11T16:26:12.779Z,25.60
2018-06-11T16:28:41.031Z,25.60
2018-06-11T16:31:09.600Z,25.60
2018-06-11T16:33:38.660Z,25.60
2018-06-11T16:36:07.461Z,25.60
2018-06-11T16:38:35.771Z,25.60
2018-06-11T16:41:06.211Z,25.60
2018-06-11T16:43:35.387Z,25.70
2018-06-11T16:46:04.271Z,25.60
2018-06-11T16:48:32.633Z,25.60
2018-06-11T16:51:01.659Z,25.60
2018-06-11T16:53:29.947Z,25.50
2018-06-11T16:55:59.082Z,25.40
2018-06-11T16:58:26.915Z,25.40
2018-06-11T17:00:55.080Z,25.40
2018-06-11T17:03:23.489Z,25.40
2018-06-11T17:05:51.777Z,25.40
2018-06-11T17:08:21.815Z,25.30
2018-06-11T17:10:49.534Z,25.30
2018-06-11T17:13:17.155Z,25.30
2018-06-11T17:15:45.125Z,25.40
2018-06-11T17:18:12.884Z,25.40
2018-06-11T17:20:41.459Z,25.30
2018-06-11T17:23:09.297Z,25.30
2018-06-11T17:25:39.114Z,25.30
2018-06-11T17:28:06.588Z,25.30
2018-06-11T17:30:34.139Z,25.30
2018-06-11T17:33:01.585Z,25.30
2018-06-11T17:35:29.857Z,25.20
2018-06-11T17:37:57.482Z,25.10
2018-06-11T17:40:24.900Z,24.80
2018-06-11T17:42:52.534Z,24.40
2018-06-11T17:45:19.985Z,24.10
2018-06-11T17:47:48.892Z,23.80
2018-06-11T17:50:17.744Z,23.70
2018-06-11T17:52:47.082Z,23.60
2018-06-11T17:55:15.561Z,23.50
2018-06-11T17:57:43.006Z,23.40
2018-06-11T18:00:10.757Z,23.40
2018-06-11T18:02:39.375Z,23.30
2018-06-11T18:05:07.497Z,23.20
2018-06-11T18:07:35.963Z,23.00
2018-06-11T18:10:03.532Z,22.90
2018-06-11T18:12:32.513Z,22.70
2018-06-11T18:15:01.581Z,22.70
2018-06-11T18:20:00.353Z,22.60
2018-06-11T18:22:28.355Z,22.60
2018-06-11T18:24:56.161Z,22.50
2018-06-11T18:27:23.543Z,22.40
2018-06-11T18:29:52.018Z,22.40
2018-06-11T18:32:20.023Z,22.30
2018-06-11T18:34:47.573Z,22.30
2018-06-11T18:37:15.517Z,22.10
2018-06-11T18:39:43.249Z,21.90
2018-06-11T18:42:17.391Z,21.80
2018-06-11T18:44:45.683Z,21.80
2018-06-11T18:47:13.399Z,21.60
2018-06-11T18:49:41.174Z,21.50
2018-06-11T18:52:11.550Z,21.60
2018-06-11T18:54:40.463Z,21.60
2018-06-11T18:57:08.053Z,21.60
2018-06-11T18:59:35.645Z,21.60
2018-06-11T19:02:03.139Z,21.60
2018-06-11T19:04:31.313Z,21.50
2018-06-11T19:06:59.462Z,21.40
2018-06-11T19:09:27.510Z,21.30
2018-06-11T19:11:56.565Z,21.30
2018-06-11T19:14:24.026Z,21.20
2018-06-11T19:16:58.073Z,21.10
2018-06-11T19:19:26.053Z,21.10
2018-06-11T19:21:53.630Z,21.00
2018-06-11T19:24:22.123Z,21.00
2018-06-11T19:26:50.054Z,20.90
2018-06-11T19:29:17.568Z,20.90
2018-06-11T19:31:45.142Z,20.90
2018-06-11T19:34:12.938Z,20.80
2018-06-11T19:36:40.523Z,20.70
2018-06-11T19:39:08.278Z,20.70
2018-06-11T19:41:36.147Z,20.70
2018-06-11T19:44:05.905Z,20.60
2018-06-11T19:46:33.851Z,20.50
2018-06-11T19:49:01.464Z,20.50
2018-06-11T19:51:29.120Z,20.40
2018-06-11T19:54:25.168Z,20.30
2018-06-11T19:56:59.611Z,20.20
2018-06-11T19:59:27.478Z,20.10
2018-06-11T20:01:55.268Z,20.10
2018-06-11T20:04:23.237Z,20.00
2018-06-11T20:06:51.054Z,20.00
2018-06-11T20:09:22.040Z,20.00
2018-06-11T20:11:50.584Z,20.00
2018-06-11T20:14:20.066Z,20.00
2018-06-11T20:16:48.044Z,20.00
2018-06-11T20:19:15.662Z,19.90
2018-06-11T20:21:43.476Z,19.90
2018-06-11T20:24:12.150Z,19.90
2018-06-11T20:26:41.256Z,19.90
2018-06-11T20:29:11.125Z,19.90
2018-06-11T20:31:38.586Z,20.00
2018-06-11T20:34:08.915Z,19.80
2018-06-11T20:39:06.501Z,19.80
2018-06-11T20:41:34.112Z,19.70
2018-06-11T20:44:01.970Z,19.70
2018-06-11T20:46:38.475Z,19.70
2018-06-11T20:49:07.246Z,19.70
2018-06-11T20:51:34.896Z,19.70
2018-06-11T20:54:02.340Z,19.70
2018-06-11T20:56:31.792Z,19.70
2018-06-11T20:58:59.508Z,19.70
2018-06-11T21:01:27.074Z,19.80
2018-06-11T21:03:54.725Z,19.80
2018-06-11T21:06:23.123Z,19.80
2018-06-11T21:08:50.979Z,19.80
2018-06-11T21:11:20.711Z,19.70
2018-06-11T21:13:48.581Z,19.70
2018-06-11T21:16:22.098Z,19.80
2018-06-11T21:18:50.349Z,19.80
2018-06-11T21:21:19.432Z,19.80
2018-06-11T21:23:47.011Z,19.80
2018-06-11T21:26:14.688Z,19.80
2018-06-11T21:28:43.885Z,19.80
2018-06-11T21:31:11.961Z,19.70
2018-06-11T21:33:39.527Z,19.70
2018-06-11T21:36:07.459Z,19.80
2018-06-11T21:38:34.874Z,19.70
2018-06-11T21:41:02.402Z,19.70
2018-06-11T21:43:37.113Z,19.70
2018-06-11T21:46:04.725Z,19.70
2018-06-11T21:48:32.338Z,19.70
2018-06-11T21:50:59.694Z,19.70
2018-06-11T21:53:27.322Z,19.70
2018-06-11T21:55:55.000Z,19.70
2018-06-11T21:58:31.686Z,19.70
2018-06-11T22:00:59.106Z,19.70
2018-06-11T22:03:26.622Z,19.60
2018-06-11T22:05:54.111Z,19.60
2018-06-11T22:08:21.647Z,19.60
2018-06-11T22:10:48.970Z,19.60
2018-06-11T22:13:17.101Z,19.60
2018-06-11T22:15:46.153Z,19.60
2018-06-11T22:18:14.051Z,19.60
2018-06-11T22:20:59.569Z,19.50
2018-06-11T22:23:37.133Z,19.50
2018-06-11T22:26:15.009Z,19.50
2018-06-11T22:31:24.021Z,19.60
2018-06-11T22:33:57.658Z,19.50
2018-06-11T22:36:58.266Z,19.50
2018-06-11T22:39:48.372Z,19.50
2018-06-11T22:42:16.067Z,19.50
2018-06-11T22:44:56.305Z,19.50
2018-06-11T22:50:34.195Z,19.50
2018-06-11T22:53:09.988Z,19.40
2018-06-11T22:55:48.443Z,19.40
2018-06-11T22:58:22.237Z,19.40
2018-06-11T23:01:02.596Z,19.50
2018-06-11T23:03:45.602Z,19.40
2018-06-11T23:06:23.271Z,19.60
2018-06-11T23:08:58.346Z,19.60
2018-06-11T23:11:34.981Z,19.70
2018-06-11T23:14:09.277Z,19.60
2018-06-11T23:16:53.840Z,19.60
2018-06-11T23:19:28.581Z,19.60
2018-06-11T23:22:01.483Z,19.50
2018-06-11T23:24:29.013Z,19.40
2018-06-11T23:27:12.919Z,19.40
2018-06-11T23:29:45.777Z,19.30
2018-06-11T23:32:19.702Z,19.30
2018-06-11T23:34:47.390Z,19.30
2018-06-11T23:37:14.694Z,19.30
2018-06-11T23:39:42.006Z,19.30
2018-06-11T23:42:09.588Z,19.40
2018-06-11T23:44:37.351Z,19.40
2018-06-11T23:47:12.620Z,19.40
2018-06-11T23:49:42.236Z,19.30
2018-06-11T23:52:09.622Z,19.40
2018-06-11T23:57:05.099Z,19.40
2018-06-11T23:59:36.048Z,19.40
